Time;durP1;ratioP1;P1;durP2;ratioP2;P2;SDS_P1;SDS_P2;PMS_P1;PMS_P2;Temp;Humidity;BMP_temperature;BMP_pressure;BME280_temperature;BME280_humidity;BME280_pressure;Samples;Min_cycle;Max_cycle;Signal;HPM_P1;HPM_P2
2024/01/05 00:00:27;;;;;;;1.23;0.40;;;;;;;-8.96;68.38;100995.38;5040265;28;20068;-73
2024/01/05 00:02:59;;;;;;;4.55;0.45;;;;;;;-8.99;68.32;100996.06;5037548;28;20090;-72
2024/01/05 00:05:27;;;;;;;2.30;0.57;;;;;;;-8.94;68.05;100989.59;5037399;28;20045;-73
2024/01/05 00:07:54;;;;;;;1.30;0.38;;;;;;;-8.95;68.04;100986.97;5040778;28;20243;-73
2024/01/05 00:10:21;;;;;;;4.35;0.30;;;;;;;-8.95;68.16;100989.50;5038923;28;20049;-73
2024/01/05 00:12:48;;;;;;;2.13;0.70;;;;;;;-8.94;68.31;100997.22;5041013;28;20053;-73
2024/01/05 00:15:15;;;;;;;1.17;0.30;;;;;;;-8.92;68.21;100988.00;5039466;28;20123;-73
2024/01/05 00:17:42;;;;;;;2.17;0.40;;;;;;;-8.92;68.10;100987.16;5041520;28;20470;-74
2024/01/05 00:20:10;;;;;;;2.65;0.40;;;;;;;-8.91;68.08;100994.00;5038374;28;20080;-73
2024/01/05 00:22:39;;;;;;;1.50;0.43;;;;;;;-8.92;68.50;100987.16;5039664;28;20079;-74
2024/01/05 00:25:07;;;;;;;1.35;0.30;;;;;;;-8.96;68.52;100973.41;5040327;28;20140;-73
2024/01/05 00:27:34;;;;;;;0.77;0.40;;;;;;;-8.95;68.23;100977.69;5039674;28;20520;-73
2024/01/05 00:30:03;;;;;;;1.17;0.30;;;;;;;-8.92;68.53;100985.47;5039690;28;20426;-73
2024/01/05 00:32:30;;;;;;;0.77;0.20;;;;;;;-8.93;68.41;100977.81;5040440;28;20418;-75
2024/01/05 00:34:57;;;;;;;2.03;0.40;;;;;;;-8.90;68.77;100979.66;5040723;28;20049;-73
2024/01/05 00:37:24;;;;;;;0.30;0.20;;;;;;;-8.92;68.05;100982.94;5038523;28;20095;-73
2024/01/05 00:39:53;;;;;;;1.50;0.30;;;;;;;-8.91;68.25;100986.38;5039016;28;20099;-73
2024/01/05 00:42:20;;;;;;;3.33;0.20;;;;;;;-8.92;68.65;100979.53;5042183;28;20103;-78
2024/01/05 00:44:47;;;;;;;3.47;0.40;;;;;;;-8.94;68.64;100984.53;5044500;28;20076;-79
2024/01/05 00:47:22;;;;;;;1.45;0.35;;;;;;;-8.90;68.47;100989.78;5045639;28;20049;-79
2024/01/05 00:49:50;;;;;;;1.85;0.45;;;;;;;-8.95;68.95;100976.81;5044995;28;20076;-78
2024/01/05 00:52:17;;;;;;;0.88;0.40;;;;;;;-8.97;68.32;100974.22;5043976;28;20084;-82
2024/01/05 00:54:44;;;;;;;1.10;0.30;;;;;;;-8.92;68.15;100970.28;5045613;28;20084;-79
2024/01/05 00:57:12;;;;;;;1.55;0.50;;;;;;;-8.92;68.01;100979.53;5043935;28;20052;-78
2024/01/05 00:59:42;;;;;;;1.20;0.35;;;;;;;-8.89;68.14;100976.31;5044900;28;20064;-78
2024/01/05 01:02:09;;;;;;;1.67;0.40;;;;;;;-8.90;68.99;100984.72;5044759;28;20045;-79
2024/01/05 01:04:36;;;;;;;0.63;0.20;;;;;;;-8.89;68.92;100981.38;5045024;28;20053;-79
2024/01/05 01:07:03;;;;;;;0.55;0.22;;;;;;;-8.90;68.29;100984.72;5044536;28;20455;-78
2024/01/05 01:09:30;;;;;;;2.45;0.50;;;;;;;-8.89;68.46;100981.38;5045738;28;20072;-79
2024/01/05 01:11:57;;;;;;;1.20;0.30;;;;;;;-8.93;68.34;100978.66;5048716;28;20461;-80
2024/01/05 01:14:25;;;;;;;0.95;0.20;;;;;;;-8.91;68.62;100978.78;5048711;28;20076;-79
2024/01/05 01:16:52;;;;;;;1.23;0.30;;;;;;;-8.96;68.36;100970.88;5045948;28;20128;-79
2024/01/05 01:19:19;;;;;;;0.38;0.28;;;;;;;-8.90;68.69;100984.72;5050456;28;20076;-80
2024/01/05 01:21:46;;;;;;;1.50;0.28;;;;;;;-8.93;68.00;100981.22;5049771;28;20049;-79
2024/01/05 01:24:13;;;;;;;0.85;0.22;;;;;;;-8.91;68.52;100983.84;5049071;28;20084;-79
2024/01/05 01:26:40;;;;;;;1.63;0.70;;;;;;;-8.92;68.80;100980.41;5050425;28;20045;-79
2024/01/05 01:29:08;;;;;;;0.80;0.30;;;;;;;-8.94;68.37;100973.50;5043709;28;20098;-79
2024/01/05 01:31:36;;;;;;;1.67;0.55;;;;;;;-8.91;68.82;100981.31;5048888;28;20513;-78
2024/01/05 01:34:03;;;;;;;1.05;0.35;;;;;;;-8.93;69.01;100981.22;5047207;28;20043;-79
2024/01/05 01:36:30;;;;;;;1.50;0.30;;;;;;;-8.93;68.32;100971.06;5050436;28;20049;-79
2024/01/05 01:38:57;;;;;;;1.05;0.30;;;;;;;-8.88;68.73;100973.88;5047528;28;20155;-79
2024/01/05 01:41:24;;;;;;;0.50;0.32;;;;;;;-8.89;68.07;100977.19;5043647;28;20087;-79
2024/01/05 01:43:51;;;;;;;0.93;0.40;;;;;;;-8.88;69.00;100972.97;5043866;28;20045;-79
2024/01/05 01:46:18;;;;;;;1.17;0.30;;;;;;;-8.85;68.92;100978.25;5050570;28;20079;-79
2024/01/05 01:48:47;;;;;;;1.42;0.40;;;;;;;-8.85;69.01;100979.13;5042760;28;20052;-79
2024/01/05 01:51:14;;;;;;;0.68;0.20;;;;;;;-8.83;68.86;100984.28;5041636;28;20061;-80
2024/01/05 01:53:41;;;;;;;1.15;0.30;;;;;;;-8.83;68.35;100981.75;5049566;28;20504;-79
2024/01/05 01:56:10;;;;;;;2.53;0.43;;;;;;;-8.83;68.51;100981.75;5048531;28;20087;-80
2024/01/05 01:58:38;;;;;;;0.32;0.20;;;;;;;-8.84;68.26;100982.53;5047248;28;20148;-78
2024/01/05 02:01:06;;;;;;;1.08;0.20;;;;;;;-8.80;68.48;100982.78;5042637;28;20045;-78
2024/01/05 02:03:34;;;;;;;0.98;0.52;;;;;;;-8.80;68.47;100977.72;5042862;28;20077;-78
2024/01/05 02:06:02;;;;;;;1.42;0.32;;;;;;;-8.77;69.13;100992.22;5050108;28;20491;-78
2024/01/05 02:08:29;;;;;;;0.65;0.38;;;;;;;-8.83;68.33;100976.66;5044528;28;20052;-78
2024/01/05 02:10:56;;;;;;;1.27;0.40;;;;;;;-8.74;68.52;100982.25;5046523;28;20103;-78
2024/01/05 02:13:23;;;;;;;1.25;0.40;;;;;;;-8.75;68.39;100986.47;5043571;28;20099;-73
2024/01/05 02:15:50;;;;;;;1.38;0.50;;;;;;;-8.71;68.96;100982.47;5038481;28;20550;-74
2024/01/05 02:18:22;;;;;;;1.52;0.32;;;;;;;-8.72;68.84;100989.19;5037253;28;20087;-73
2024/01/05 02:20:49;;;;;;;2.90;0.43;;;;;;;-8.70;69.02;100986.75;5039012;28;20459;-73
2024/01/05 02:23:25;;;;;;;1.58;0.40;;;;;;;-8.71;69.01;100985.00;5035898;28;20107;-72
2024/01/05 02:25:58;;;;;;;1.25;0.32;;;;;;;-8.69;68.33;100983.41;5036669;28;20076;-73
2024/01/05 02:28:25;;;;;;;0.43;0.30;;;;;;;-8.68;68.50;100985.19;5037225;28;20537;-73
2024/01/05 02:30:54;;;;;;;1.05;0.28;;;;;;;-8.71;68.50;100985.00;5037137;28;20069;-73
2024/01/05 02:33:21;;;;;;;3.60;0.38;;;;;;;-8.66;68.83;100985.25;5040924;28;20076;-73
2024/01/05 02:35:49;;;;;;;0.88;0.28;;;;;;;-8.67;68.57;100976.78;5039771;28;20095;-72
2024/01/05 02:38:17;;;;;;;3.55;0.98;;;;;;;-8.67;68.44;100981.84;5047532;28;20048;-73
2024/01/05 02:40:55;;;;;;;2.03;0.40;;;;;;;-8.65;68.63;100992.97;5048293;28;20049;-73
2024/01/05 02:43:22;;;;;;;1.42;0.40;;;;;;;-8.65;68.34;100987.91;5043045;28;20053;-73
2024/01/05 02:45:49;;;;;;;0.85;0.30;;;;;;;-8.65;69.03;100982.81;5041758;28;20041;-73
2024/01/05 02:48:16;;;;;;;1.42;0.60;;;;;;;-8.65;68.92;100992.09;5041498;28;20049;-73
2024/01/05 02:50:43;;;;;;;1.58;0.30;;;;;;;-8.65;69.02;100981.97;5043104;28;20065;-73
2024/01/05 02:53:10;;;;;;;0.93;0.30;;;;;;;-8.65;68.17;100981.97;5043034;28;20475;-73
2024/01/05 02:55:37;;;;;;;1.65;0.55;;;;;;;-8.65;68.91;100992.97;5046697;28;20580;-74
2024/01/05 02:58:06;;;;;;;0.88;0.40;;;;;;;-8.66;68.88;100991.19;5040359;28;20156;-76
2024/01/05 03:00:32;;;;;;;2.22;0.35;;;;;;;-8.64;68.39;100994.72;5042107;28;20056;-73
2024/01/05 03:02:59;;;;;;;1.80;0.50;;;;;;;-8.65;68.78;100985.38;5046962;28;20132;-78
2024/01/05 03:05:32;;;;;;;1.50;0.40;;;;;;;-8.67;68.57;100984.38;5048200;28;20081;-79
2024/01/05 03:07:59;;;;;;;1.70;0.55;;;;;;;-8.63;68.53;100982.91;5049767;28;20080;-78
2024/01/05 03:10:26;;;;;;;1.35;0.50;;;;;;;-8.64;68.50;100984.56;5050121;28;20048;-78
2024/01/05 03:12:56;;;;;;;1.02;0.32;;;;;;;-8.66;68.63;100975.97;5047847;28;20077;-79
2024/01/05 03:15:25;;;;;;;2.78;0.47;;;;;;;-8.74;68.31;100964.50;5049587;28;20520;-78
2024/01/05 03:17:52;;;;;;;0.50;0.30;;;;;;;-8.67;68.96;100974.25;5045521;28;20049;-79
2024/01/05 03:20:22;;;;;;;1.77;0.32;;;;;;;-8.65;68.46;100976.88;5048635;28;20045;-80
2024/01/05 03:22:49;;;;;;;2.08;0.40;;;;;;;-8.64;69.06;100983.69;5048382;28;20045;-79
2024/01/05 03:25:16;;;;;;;3.95;0.30;;;;;;;-8.64;68.25;100979.50;5039557;28;20076;-79
2024/01/05 03:27:43;;;;;;;2.92;0.40;;;;;;;-8.70;68.72;100969.00;5053225;28;20483;-79
2024/01/05 03:30:10;;;;;;;2.83;0.40;;;;;;;-8.72;68.29;100963.81;5044976;28;20578;-79
2024/01/05 03:32:39;;;;;;;1.88;0.50;;;;;;;-8.62;69.00;100977.94;5046751;28;20049;-80
2024/01/05 03:35:07;;;;;;;1.77;0.50;;;;;;;-8.70;68.36;100969.88;5050312;28;20073;-79
2024/01/05 03:37:33;;;;;;;1.17;0.50;;;;;;;-8.61;68.63;100979.66;5046745;28;20542;-79
2024/01/05 03:40:00;;;;;;;1.08;0.40;;;;;;;-8.60;68.68;100985.59;5050451;28;20072;-80
2024/01/05 03:42:27;;;;;;;1.60;0.52;;;;;;;-8.62;68.71;100975.38;5050248;28;20045;-79
2024/01/05 03:44:55;;;;;;;1.73;0.40;;;;;;;-8.61;68.72;100982.19;5048144;28;20084;-80
2024/01/05 03:47:22;;;;;;;3.08;0.50;;;;;;;-8.60;68.45;100981.41;5043185;28;20045;-80
2024/01/05 03:49:50;;;;;;;1.55;0.60;;;;;;;-8.59;68.41;100992.44;5045328;28;20076;-80
2024/01/05 03:52:17;;;;;;;1.30;0.40;;;;;;;-8.58;68.54;100984.91;5044502;28;20466;-81
2024/01/05 03:54:44;;;;;;;0.70;0.30;;;;;;;-8.63;68.28;100986.31;5048924;28;20186;-80
2024/01/05 03:57:11;;;;;;;3.25;0.70;;;;;;;-8.58;69.02;100989.13;5045611;28;20045;-80
2024/01/05 03:59:38;;;;;;;1.80;0.32;;;;;;;-8.59;68.43;100993.31;5048159;28;20061;-80
2024/01/05 04:02:05;;;;;;;8.70;0.43;;;;;;;-8.57;68.46;100985.78;5050596;28;20053;-79
2024/01/05 04:04:32;;;;;;;1.80;0.28;;;;;;;-8.59;68.41;100993.31;5044975;28;20069;-79
2024/01/05 04:07:01;;;;;;;0.90;0.20;;;;;;;-8.58;68.79;100989.97;5052927;28;20052;-80
2024/01/05 04:09:28;;;;;;;0.68;0.20;;;;;;;-8.57;69.08;100991.75;5045905;28;20123;-80
2024/01/05 04:11:55;;;;;;;1.13;0.40;;;;;;;-8.57;68.38;100991.75;5051016;28;20212;-80
2024/01/05 04:14:22;;;;;;;0.38;0.30;;;;;;;-8.60;68.40;100983.94;5046185;28;20525;-81
2024/01/05 04:16:49;;;;;;;2.47;0.57;;;;;;;-8.57;69.19;100994.28;5049595;28;20572;-81
2024/01/05 04:19:16;;;;;;;1.25;0.40;;;;;;;-8.58;68.63;100995.06;5047486;28;20079;-81
2024/01/05 04:21:43;;;;;;;0.68;0.30;;;;;;;-8.56;68.27;101006.19;5047273;28;20045;-81
2024/01/05 04:24:12;;;;;;;1.48;0.52;;;;;;;-8.57;68.83;100995.94;5048518;28;20077;-82
2024/01/05 04:26:40;;;;;;;10.93;0.52;;;;;;;-8.58;68.42;101000.13;5050347;28;20045;-82
2024/01/05 04:29:07;;;;;;;1.35;0.30;;;;;;;-8.57;69.11;100999.38;5048841;28;20053;-80
2024/01/05 04:31:34;;;;;;;1.33;0.50;;;;;;;-8.57;68.34;101004.44;5050631;28;20095;-80
2024/01/05 04:34:01;;;;;;;0.25;0.10;;;;;;;-8.56;68.63;101008.72;5042461;28;20664;-73
2024/01/05 04:36:28;;;;;;;1.42;0.50;;;;;;;-8.57;68.84;100995.94;5039380;28;20045;-73
2024/01/05 04:38:55;;;;;;;2.10;0.50;;;;;;;-8.54;69.29;101006.25;5038748;28;20079;-72
2024/01/05 04:41:24;;;;;;;1.85;0.30;;;;;;;-8.55;69.13;101009.59;5039548;28;20490;-72
2024/01/05 04:43:51;;;;;;;1.98;0.52;;;;;;;-8.53;69.08;101013.09;5042572;28;20051;-73
2024/01/05 04:46:19;;;;;;;2.05;0.40;;;;;;;-8.55;68.63;101001.97;5043186;28;20076;-72
2024/01/05 04:48:46;;;;;;;3.05;0.63;;;;;;;-8.52;69.40;101005.56;5044095;28;20579;-73
2024/01/05 04:51:13;;;;;;;1.17;0.63;;;;;;;-8.51;69.29;101014.06;5045272;28;20442;-73
2024/01/05 04:53:40;;;;;;;2.47;1.27;;;;;;;-8.51;69.02;101014.94;5039054;28;20076;-73
2024/01/05 04:56:10;;;;;;;3.53;0.82;;;;;;;-8.49;68.47;101015.88;5041474;28;20608;-73
2024/01/05 04:58:43;;;;;;;1.70;0.50;;;;;;;-8.49;69.26;101015.88;5040650;28;20050;-73
2024/01/05 05:01:10;;;;;;;1.25;0.50;;;;;;;-8.48;69.52;101017.66;5039740;28;20069;-73
2024/01/05 05:03:37;;;;;;;0.95;0.32;;;;;;;-8.47;69.31;101028.66;5042581;28;20080;-73
2024/01/05 05:06:04;;;;;;;0.90;0.50;;;;;;;-8.44;68.67;101022.91;5040575;28;20081;-73
2024/01/05 05:08:31;;;;;;;2.55;0.40;;;;;;;-8.43;68.74;101030.59;5041247;28;20077;-74
2024/01/05 05:10:58;;;;;;;1.50;0.40;;;;;;;-8.43;69.51;101029.72;5037818;28;20049;-74
2024/01/05 05:13:25;;;;;;;0.45;0.10;;;;;;;-8.40;69.38;101029.88;5042528;28;20087;-74
2024/01/05 05:15:54;;;;;;;2.22;0.80;;;;;;;-8.43;68.66;101029.72;5037385;28;20503;-73
2024/01/05 05:18:21;;;;;;;1.05;0.40;;;;;;;-8.42;69.21;101036.56;5038404;28;20048;-73
2024/01/05 05:20:51;;;;;;;3.83;0.80;;;;;;;-8.43;68.83;101043.28;5037382;28;20080;-75
2024/01/05 05:23:18;;;;;;;1.70;0.55;;;;;;;-8.44;69.09;101043.19;5045857;28;20049;-79
2024/01/05 05:25:46;;;;;;;0.90;0.30;;;;;;;-8.46;68.71;101045.63;5049017;28;20516;-78
2024/01/05 05:28:13;;;;;;;3.58;0.93;;;;;;;-8.50;69.38;101034.44;5050113;28;20407;-78
2024/01/05 05:30:40;;;;;;;0.93;0.50;;;;;;;-8.51;68.73;101032.69;5042668;28;20069;-78
2024/01/05 05:33:08;;;;;;;2.60;0.90;;;;;;;-8.47;69.47;101039.69;5047742;28;20105;-79
2024/01/05 05:35:35;;;;;;;3.13;0.57;;;;;;;-8.54;68.51;101037.59;5047758;28;20510;-79
2024/01/05 05:38:03;;;;;;;0.60;0.40;;;;;;;-8.51;69.37;101042.84;5049023;28;20487;-78
2024/01/05 05:40:31;;;;;;;2.45;0.82;;;;;;;-8.46;69.23;101050.72;5049548;28;20514;-77
2024/01/05 05:42:58;;;;;;;1.92;0.68;;;;;;;-8.48;69.25;101049.75;5044267;28;20048;-78
2024/01/05 05:45:26;;;;;;;2.88;0.47;;;;;;;-8.43;69.27;101055.09;5038914;28;20076;-78
2024/01/05 05:47:53;;;;;;;1.25;0.55;;;;;;;-8.45;68.86;101060.09;5047135;28;20048;-79
2024/01/05 05:50:21;;;;;;;2.65;0.50;;;;;;;-8.47;69.03;101047.31;5047927;28;20596;-79
2024/01/05 05:52:51;;;;;;;0.80;0.52;;;;;;;-8.43;69.26;101052.56;5047571;28;20044;-79
2024/01/05 05:55:18;;;;;;;2.15;0.30;;;;;;;-8.41;69.17;101063.66;5050094;28;20053;-79
2024/01/05 05:57:45;;;;;;;0.77;0.30;;;;;;;-8.38;68.83;101057.09;5046487;28;20087;-78
2024/01/05 06:00:13;;;;;;;0.93;0.47;;;;;;;-8.41;69.30;101054.38;5045917;28;20045;-79
2024/01/05 06:02:40;;;;;;;1.08;0.98;;;;;;;-8.36;68.73;101057.22;5045462;28;20041;-80
2024/01/05 06:05:08;;;;;;;2.30;0.50;;;;;;;-8.34;68.71;101061.59;5043947;28;20130;-79
2024/01/05 06:07:36;;;;;;;2.08;0.50;;;;;;;-8.30;68.76;101068.56;5048695;28;20068;-79
2024/01/05 06:10:07;;;;;;;0.60;0.30;;;;;;;-8.39;69.05;101044.34;5045641;28;20048;-80
2024/01/05 06:12:35;;;;;;;1.38;0.38;;;;;;;-8.35;68.41;101059.81;5047786;28;20068;-80
2024/01/05 06:15:02;;;;;;;1.63;0.30;;;;;;;-8.29;69.17;101064.38;5044790;28;20454;-79
2024/01/05 06:17:29;;;;;;;1.40;0.50;;;;;;;-8.26;69.02;101065.44;5046851;28;20041;-80
2024/01/05 06:19:56;;;;;;;2.28;0.38;;;;;;;-8.24;69.02;101070.59;5046781;28;20107;-80
2024/01/05 06:22:23;;;;;;;1.63;0.57;;;;;;;-8.24;68.83;101073.13;5042897;28;20049;-80
2024/01/05 06:24:51;;;;;;;2.28;0.60;;;;;;;-8.23;68.39;101072.34;5048150;28;20423;-79
2024/01/05 06:27:18;;;;;;;0.63;0.50;;;;;;;-8.22;68.49;101074.09;5046824;28;20179;-79
2024/01/05 06:29:45;;;;;;;1.45;0.43;;;;;;;-8.24;68.70;101075.66;5047693;28;20049;-79
2024/01/05 06:32:13;;;;;;;1.00;0.60;;;;;;;-8.23;68.99;101072.34;5036660;28;20041;-79
2024/01/05 06:34:39;;;;;;;1.55;0.80;;;;;;;-8.23;68.47;101074.88;5047047;28;20102;-79
2024/01/05 06:37:06;;;;;;;1.98;0.50;;;;;;;-8.27;69.00;101073.84;5048235;28;20140;-79
2024/01/05 06:39:33;;;;;;;3.28;0.68;;;;;;;-8.22;68.49;101085.94;5046928;28;20099;-80
2024/01/05 06:42:04;;;;;;;1.15;0.40;;;;;;;-8.25;68.51;101077.34;5041615;28;20136;-79
2024/01/05 06:44:31;;;;;;;2.25;0.65;;;;;;;-8.24;68.27;101088.38;5046072;28;20439;-80
2024/01/05 06:46:58;;;;;;;0.47;0.20;;;;;;;-8.24;68.88;101078.22;5047319;28;20110;-79
2024/01/05 06:49:26;;;;;;;2.22;0.40;;;;;;;-8.22;68.37;101091.00;5045263;28;20049;-81
2024/01/05 06:51:53;;;;;;;0.47;0.30;;;;;;;-8.23;68.49;101090.09;5042429;28;20056;-76
2024/01/05 06:54:20;;;;;;;0.52;0.28;;;;;;;-8.22;68.18;101093.53;5037352;28;20057;-74
2024/01/05 06:56:47;;;;;;;1.95;1.05;;;;;;;-8.21;67.84;101098.69;5041304;28;20495;-74
2024/01/05 06:59:16;;;;;;;1.45;0.50;;;;;;;-8.22;67.85;101102.03;5037850;28;20081;-73
2024/01/05 07:01:43;;;;;;;1.25;0.50;;;;;;;-8.22;68.03;101098.63;5037329;28;20164;-74
2024/01/05 07:04:09;;;;;;;1.58;0.52;;;;;;;-8.24;68.43;101098.50;5042540;28;20088;-73
2024/01/05 07:06:41;;;;;;;1.30;0.30;;;;;;;-8.25;67.86;101092.56;5041416;28;20080;-73
2024/01/05 07:09:08;;;;;;;1.80;0.80;;;;;;;-8.25;68.08;101100.19;5039359;28;20052;-74
2024/01/05 07:11:35;;;;;;;1.90;0.40;;;;;;;-8.26;68.44;101107.69;5040701;28;20080;-73
2024/01/05 07:14:02;;;;;;;1.08;0.40;;;;;;;-8.25;68.05;101106.94;5038419;28;20045;-74
2024/01/05 07:16:31;;;;;;;0.80;0.40;;;;;;;-8.25;68.33;101099.31;5037421;28;20095;-73
2024/01/05 07:19:00;;;;;;;1.35;0.40;;;;;;;-8.26;67.91;101106.06;5040228;28;20499;-74
2024/01/05 07:21:30;;;;;;;2.67;0.35;;;;;;;-8.25;67.79;101106.94;5043474;28;20049;-73
2024/01/05 07:23:57;;;;;;;5.00;3.05;;;;;;;-8.28;67.77;101101.69;5040548;28;20083;-73
2024/01/05 07:26:24;;;;;;;1.27;0.30;;;;;;;-8.28;67.99;101101.69;5043772;28;20104;-74
2024/01/05 07:28:51;;;;;;;0.77;0.40;;;;;;;-8.29;67.71;101108.38;5042983;28;20045;-73
2024/01/05 07:31:23;;;;;;;0.60;0.20;;;;;;;-8.30;68.19;101106.66;5040946;28;20132;-72
2024/01/05 07:33:51;;;;;;;1.52;0.45;;;;;;;-8.34;68.13;101099.66;5034219;28;20416;-74
2024/01/05 07:36:18;;;;;;;2.65;0.70;;;;;;;-8.36;67.46;101091.06;5039115;28;20061;-76
2024/01/05 07:38:45;;;;;;;0.98;0.50;;;;;;;-8.36;68.07;101108.84;5043998;28;20053;-75
2024/01/05 07:41:16;;;;;;;1.65;0.50;;;;;;;-8.33;67.76;101119.16;5042316;28;20045;-74
2024/01/05 07:43:43;;;;;;;0.40;0.20;;;;;;;-8.35;68.15;101114.78;5043988;28;20040;-75
2024/01/05 07:46:10;;;;;;;1.50;0.30;;;;;;;-8.37;67.62;101121.41;5047410;28;20079;-75
2024/01/05 07:48:40;;;;;;;2.00;0.40;;;;;;;-8.45;67.57;101108.31;5040855;28;20057;-76
2024/01/05 07:51:10;;;;;;;2.20;0.43;;;;;;;-8.41;67.43;101119.50;5041159;28;20059;-76
2024/01/05 07:53:38;;;;;;;2.33;0.50;;;;;;;-8.41;67.08;101119.50;5043854;28;20049;-76
2024/01/05 07:56:06;;;;;;;2.58;0.40;;;;;;;-8.42;67.94;101123.69;5040908;28;20462;-75
2024/01/05 07:58:33;;;;;;;1.27;0.30;;;;;;;-8.44;67.70;101119.31;5043605;28;20564;-75
2024/01/05 08:01:00;;;;;;;0.88;0.40;;;;;;;-8.43;67.94;101121.94;5044820;28;20063;-75
2024/01/05 08:03:28;;;;;;;1.23;0.40;;;;;;;-8.43;67.21;101121.94;5045982;28;20072;-74
2024/01/05 08:05:55;;;;;;;1.52;0.47;;;;;;;-8.43;68.01;101121.06;5044601;28;20048;-75
2024/01/05 08:08:24;;;;;;;2.25;0.60;;;;;;;-8.44;66.94;101120.19;5048029;28;20081;-75
2024/01/05 08:10:51;;;;;;;1.65;0.40;;;;;;;-8.46;67.46;101126.81;5040757;28;20041;-75
2024/01/05 08:13:19;;;;;;;3.13;0.40;;;;;;;-8.47;67.71;101125.94;5045231;28;20069;-75
2024/01/05 08:15:46;;;;;;;4.55;0.50;;;;;;;-8.51;67.29;101124.03;5044621;28;20037;-76
2024/01/05 08:18:13;;;;;;;2.47;0.47;;;;;;;-8.54;67.62;101128.94;5040790;28;20094;-74
2024/01/05 08:20:40;;;;;;;1.95;0.45;;;;;;;-8.56;67.71;101125.41;5043881;28;20127;-75
2024/01/05 08:23:07;;;;;;;4.85;0.40;;;;;;;-8.65;67.70;101119.78;5040900;28;20086;-75
2024/01/05 08:25:35;;;;;;;0.98;0.60;;;;;;;-8.62;67.57;101140.28;5044939;28;20111;-76
2024/01/05 08:28:02;;;;;;;0.93;0.30;;;;;;;-8.65;68.00;101136.69;5041973;28;20115;-75
2024/01/05 08:30:30;;;;;;;2.75;0.30;;;;;;;-8.69;67.83;101138.13;5042390;28;20115;-75
2024/01/05 08:32:57;;;;;;;2.55;0.32;;;;;;;-8.74;67.20;101139.50;5042668;28;20044;-75
2024/01/05 08:35:24;;;;;;;0.70;0.30;;;;;;;-8.77;68.26;101139.31;5042937;28;20060;-74
2024/01/05 08:37:51;;;;;;;1.75;0.40;;;;;;;-8.80;67.58;101144.22;5040498;28;20072;-75
2024/01/05 08:40:19;;;;;;;3.65;0.50;;;;;;;-8.85;68.07;101148.16;5042597;28;20183;-74
2024/01/05 08:42:47;;;;;;;1.73;0.40;;;;;;;-8.89;67.67;101138.59;5041630;28;20140;-74
2024/01/05 08:45:16;;;;;;;1.52;0.30;;;;;;;-8.94;68.02;101145.91;5038249;28;20122;-75
2024/01/05 08:47:43;;;;;;;1.35;0.50;;;;;;;-8.99;67.65;101139.69;5041345;28;20041;-75
2024/01/05 08:50:10;;;;;;;1.63;0.43;;;;;;;-8.99;68.08;101139.69;5042258;28;20053;-75
2024/01/05 08:52:37;;;;;;;2.25;0.38;;;;;;;-9.04;68.15;101141.06;5042847;28;20079;-75
2024/01/05 08:55:05;;;;;;;1.25;0.52;;;;;;;-9.04;67.71;101141.06;5045902;28;20052;-76
2024/01/05 08:57:32;;;;;;;2.17;0.57;;;;;;;-9.07;67.46;101144.28;5042534;28;20048;-75
2024/01/05 09:00:01;;;;;;;1.48;0.45;;;;;;;-9.10;68.39;101146.63;5046081;28;20049;-76
2024/01/05 09:02:28;;;;;;;3.60;1.02;;;;;;;-9.10;68.15;101144.09;5039392;28;20049;-74
2024/01/05 09:04:55;;;;;;;1.35;0.50;;;;;;;-9.09;67.76;101155.97;5046581;28;20057;-76
2024/01/05 09:07:21;;;;;;;0.90;0.40;;;;;;;-9.12;68.03;101138.03;5042453;28;20087;-77
2024/01/05 09:09:48;;;;;;;4.50;0.65;;;;;;;-9.12;67.71;101155.78;5046573;28;20092;-75
2024/01/05 09:12:16;;;;;;;1.65;0.38;;;;;;;-9.12;68.05;101155.78;5042679;28;20151;-75
2024/01/05 09:14:43;;;;;;;1.58;0.40;;;;;;;-9.11;67.65;101152.50;5041531;28;20135;-74
2024/01/05 09:17:13;;;;;;;3.95;0.10;;;;;;;-9.11;68.38;101149.94;5038971;28;20084;-75
2024/01/05 09:19:40;;;;;;;1.67;0.30;;;;;;;-9.09;67.84;101158.50;5042415;28;20487;-75
2024/01/05 09:22:08;;;;;;;1.40;0.30;;;;;;;-9.07;67.57;101156.09;5042335;28;20109;-74
2024/01/05 09:24:34;;;;;;;0.80;0.40;;;;;;;-9.07;67.68;101154.41;5041553;28;20466;-76
2024/01/05 09:27:02;;;;;;;2.58;0.43;;;;;;;-9.04;68.66;101156.28;5047823;28;20439;-77
2024/01/05 09:29:30;;;;;;;0.60;0.32;;;;;;;-9.02;67.83;101157.25;5049517;28;20451;-76
2024/01/05 09:31:57;;;;;;;3.03;0.22;;;;;;;-9.00;67.87;101160.72;5045326;28;20060;-76
2024/01/05 09:34:26;;;;;;;1.77;0.60;;;;;;;-8.97;68.07;101166.91;5045063;28;20428;-75
2024/01/05 09:36:55;;;;;;;2.35;0.40;;;;;;;-8.98;68.48;101165.13;5040941;28;20057;-76
2024/01/05 09:39:22;;;;;;;4.45;0.60;;;;;;;-9.02;68.66;101154.72;5045854;28;20040;-75
2024/01/05 09:41:50;;;;;;;3.40;0.28;;;;;;;-8.94;68.58;101162.00;5046380;28;20573;-76
2024/01/05 09:44:21;;;;;;;3.45;0.38;;;;;;;-8.93;67.80;101163.75;5039818;28;20133;-76
2024/01/05 09:46:48;;;;;;;1.88;0.40;;;;;;;-8.90;68.02;101157.13;5030332;28;20475;-77
2024/01/05 09:49:16;;;;;;;2.15;0.40;;;;;;;-8.92;68.70;101160.44;5043641;28;20061;-75
2024/01/05 09:51:46;;;;;;;1.13;0.43;;;;;;;-8.88;68.22;101169.13;5040022;28;20053;-76
2024/01/05 09:54:14;;;;;;;1.02;0.30;;;;;;;-8.87;68.27;101175.94;5043944;28;20041;-74
2024/01/05 09:56:47;;;;;;;2.35;0.20;;;;;;;-8.86;68.20;101171.75;5044711;28;20079;-74
2024/01/05 09:59:17;;;;;;;1.33;0.30;;;;;;;-8.90;68.53;101167.28;5043708;28;20052;-75
2024/01/05 10:01:45;;;;;;;0.65;0.30;;;;;;;-8.85;68.13;101170.97;5041227;28;20048;-74
2024/01/05 10:04:13;;;;;;;1.25;0.70;;;;;;;-8.84;68.44;101178.66;5041892;28;20116;-73
2024/01/05 10:06:40;;;;;;;1.98;0.30;;;;;;;-8.82;68.39;101173.69;5040728;28;20469;-73
2024/01/05 10:09:09;;;;;;;1.65;0.38;;;;;;;-8.81;68.29;101183.91;5039218;28;20506;-74
2024/01/05 10:11:41;;;;;;;3.17;0.50;;;;;;;-8.79;68.57;101186.56;5046695;28;20099;-73
2024/01/05 10:14:13;;;;;;;1.65;0.38;;;;;;;-8.78;68.53;101185.75;5043320;28;20064;-72
2024/01/05 10:16:43;;;;;;;3.67;0.40;;;;;;;-8.77;68.51;101190.03;5044577;28;20534;-72
2024/01/05 10:19:12;;;;;;;3.40;0.38;;;;;;;-8.75;67.95;101188.50;5044396;28;20462;-72
2024/01/05 10:21:40;;;;;;;1.05;0.35;;;;;;;-8.72;68.25;101186.13;5041072;28;20165;-72
2024/01/05 10:24:16;;;;;;;1.55;0.30;;;;;;;-8.79;68.34;101171.34;5042777;28;20057;-75
2024/01/05 10:26:43;;;;;;;0.63;0.20;;;;;;;-8.72;68.26;101181.06;5044266;28;20099;-75
2024/01/05 10:29:14;;;;;;;1.83;0.32;;;;;;;-8.70;68.21;101184.59;5037479;28;20069;-75
2024/01/05 10:31:41;;;;;;;1.30;0.20;;;;;;;-8.68;68.39;101188.09;5040255;28;20506;-75
2024/01/05 10:34:09;;;;;;;1.15;0.32;;;;;;;-8.70;68.35;101171.91;5042949;28;20076;-75
2024/01/05 10:36:36;;;;;;;2.15;0.43;;;;;;;-8.66;68.47;101181.44;5040508;28;20517;-75
2024/01/05 10:39:04;;;;;;;1.42;0.40;;;;;;;-8.64;68.65;101184.94;5043203;28;20100;-75
2024/01/05 10:41:32;;;;;;;3.47;0.40;;;;;;;-8.65;68.78;101175.59;5032681;28;20052;-75
2024/01/05 10:44:00;;;;;;;2.88;0.40;;;;;;;-8.62;68.36;101178.31;5039299;28;20104;-75
2024/01/05 10:46:28;;;;;;;0.52;0.30;;;;;;;-8.60;68.19;101184.34;5036692;28;20069;-75
2024/01/05 10:48:56;;;;;;;1.70;0.30;;;;;;;-8.62;68.53;101175.78;5040275;28;20053;-75
2024/01/05 10:51:24;;;;;;;1.13;0.30;;;;;;;-8.59;68.23;101175.09;5040190;28;20107;-76
2024/01/05 10:53:51;;;;;;;2.00;0.30;;;;;;;-8.58;68.23;101182.78;5043022;28;20049;-75
2024/01/05 10:56:20;;;;;;;1.35;0.40;;;;;;;-8.59;68.08;101186.13;5042642;28;20052;-76
2024/01/05 10:58:52;;;;;;;0.90;0.30;;;;;;;-8.60;68.22;101181.81;5044556;28;20483;-76
2024/01/05 11:01:20;;;;;;;0.93;0.30;;;;;;;-8.59;67.87;101183.59;5048118;28;20060;-76
2024/01/05 11:03:50;;;;;;;1.45;0.45;;;;;;;-8.61;68.25;101171.59;5044461;28;20052;-77
2024/01/05 11:06:18;;;;;;;6.00;0.60;;;;;;;-8.58;68.29;101177.72;5046067;28;20084;-76
2024/01/05 11:08:58;;;;;;;0.50;0.20;;;;;;;-8.58;68.16;101180.25;5048917;28;20045;-77
2024/01/05 11:11:36;;;;;;;1.70;0.35;;;;;;;-8.65;67.83;101164.59;5042594;28;20530;-77
2024/01/05 11:14:37;;;;;;;1.38;0.30;;;;;;;-8.57;68.01;101176.03;5051351;28;20087;-83
2024/01/05 11:17:25;;;;;;;2.10;0.30;;;;;;;-8.55;68.32;101182.97;5045714;28;20053;-81
2024/01/05 11:20:01;;;;;;;0.65;0.20;;;;;;;-8.54;67.72;101191.44;5053685;28;20099;-82
2024/01/05 11:22:31;;;;;;;0.68;0.20;;;;;;;-8.54;68.04;101184.75;5048397;28;20084;-83
2024/01/05 11:24:59;;;;;;;1.88;0.47;;;;;;;-8.55;67.78;101177.03;5050999;28;20081;-84
2024/01/05 11:27:31;;;;;;;1.13;0.25;;;;;;;-8.52;67.91;101182.28;5046144;28;20552;-82